Time;durP1;ratioP1;P1;durP2;ratioP2;P2;SDS_P1;SDS_P2;PMS_P1;PMS_P2;Temp;Humidity;BMP_temperature;BMP_pressure;BME280_temperature;BME280_humidity;BME280_pressure;Samples;Min_cycle;Max_cycle;Signal;HPM_P1;HPM_P2
2021/08/24 00:00:30;;;;;;;15.35;8.32;;;12.40;99.90;;;;;;5114067;28;20052;-73
2021/08/24 00:02:57;;;;;;;13.45;7.63;;;12.40;99.90;;;;;;5113710;28;20073;-73
2021/08/24 00:05:28;;;;;;;14.23;8.43;;;12.30;99.90;;;;;;5113190;28;20054;-72
2021/08/24 00:07:57;;;;;;;13.50;8.40;;;12.30;99.90;;;;;;5112554;28;20074;-71
2021/08/24 00:10:24;;;;;;;14.32;7.55;;;12.20;99.90;;;;;;5113573;28;20043;-72
2021/08/24 00:12:52;;;;;;;13.43;7.97;;;12.20;99.90;;;;;;5113506;28;20135;-73
2021/08/24 00:15:21;;;;;;;13.52;8.30;;;12.20;99.90;;;;;;5112587;28;20051;-73
2021/08/24 00:17:48;;;;;;;12.05;7.40;;;12.10;99.90;;;;;;5112538;28;20101;-72
2021/08/24 00:20:16;;;;;;;14.13;7.45;;;12.10;99.90;;;;;;5113107;28;20055;-72
2021/08/24 00:22:43;;;;;;;12.50;7.05;;;12.10;99.90;;;;;;5112702;28;20096;-72
2021/08/24 00:25:13;;;;;;;13.30;6.97;;;12.10;99.90;;;;;;5113191;28;20047;-73
2021/08/24 00:27:41;;;;;;;13.80;7.57;;;12.10;99.90;;;;;;5113176;28;20059;-72
2021/08/24 00:30:09;;;;;;;12.05;7.45;;;12.10;99.90;;;;;;5113944;28;20114;-72
2021/08/24 00:32:38;;;;;;;11.32;7.22;;;12.00;99.90;;;;;;5113689;28;20047;-72
2021/08/24 00:35:05;;;;;;;12.38;7.43;;;12.10;99.90;;;;;;5113719;28;20560;-73
2021/08/24 00:37:33;;;;;;;12.80;7.80;;;12.10;99.90;;;;;;5113027;28;20051;-72
2021/08/24 00:40:00;;;;;;;13.90;7.10;;;12.10;99.90;;;;;;5113806;28;20055;-72
2021/08/24 00:42:27;;;;;;;15.60;7.75;;;12.10;99.90;;;;;;5113094;28;20511;-72
2021/08/24 00:44:54;;;;;;;15.20;7.68;;;12.00;99.90;;;;;;5113405;28;20047;-72
2021/08/24 00:47:23;;;;;;;14.38;8.73;;;12.00;99.90;;;;;;5113466;28;20427;-72
2021/08/24 00:49:51;;;;;;;23.80;7.97;;;12.00;99.90;;;;;;5112824;28;20096;-71
2021/08/24 00:52:22;;;;;;;15.35;8.30;;;12.00;99.90;;;;;;5113952;28;20044;-73
2021/08/24 00:54:49;;;;;;;13.55;8.25;;;11.90;99.90;;;;;;5113884;28;20150;-71
2021/08/24 00:57:19;;;;;;;14.75;8.43;;;11.90;99.90;;;;;;5112949;28;20093;-72
2021/08/24 00:59:47;;;;;;;14.25;8.73;;;11.90;99.90;;;;;;5112585;28;20405;-72
2021/08/24 01:02:17;;;;;;;16.13;9.13;;;11.90;99.90;;;;;;5114098;28;20052;-74
2021/08/24 01:04:46;;;;;;;17.17;8.18;;;11.90;99.90;;;;;;5114241;28;20055;-73
2021/08/24 01:07:20;;;;;;;14.93;8.80;;;11.90;99.90;;;;;;5114729;28;20555;-73
2021/08/24 01:09:51;;;;;;;14.07;7.70;;;11.80;99.90;;;;;;5114733;28;20054;-73
2021/08/24 01:12:33;;;;;;;12.82;8.20;;;11.80;99.90;;;;;;5115281;28;20144;-73
2021/08/24 01:15:06;;;;;;;16.67;8.55;;;11.80;99.90;;;;;;5115249;28;20047;-74
2021/08/24 01:17:40;;;;;;;17.65;8.23;;;11.80;99.90;;;;;;5114992;28;20047;-72
2021/08/24 01:20:27;;;;;;;16.33;8.43;;;11.80;99.90;;;;;;5114732;28;20477;-73
2021/08/24 01:23:34;;;;;;;19.75;9.52;;;11.80;99.90;;;;;;5101908;28;20044;-73
2021/08/24 01:26:06;;;;;;;14.07;7.95;;;11.80;99.90;;;;;;5116909;28;20100;-73
2021/08/24 01:28:49;;;;;;;19.05;8.57;;;11.80;99.90;;;;;;5118090;28;20107;-73
2021/08/24 01:31:37;;;;;;;16.00;9.30;;;11.80;99.90;;;;;;5118829;28;20108;-72
2021/08/24 01:34:25;;;;;;;15.23;7.80;;;11.90;99.90;;;;;;5118491;28;20085;-73
2021/08/24 01:36:56;;;;;;;;;;;11.90;99.90;;;;;;5118914;28;20051;-73
2021/08/24 01:39:28;;;;;;;14.02;8.07;;;12.00;99.90;;;;;;5116444;28;19919;-71
2021/08/24 01:42:07;;;;;;;16.77;7.97;;;12.00;99.90;;;;;;5117082;28;20104;-72
2021/08/24 01:44:40;;;;;;;13.73;8.23;;;11.90;99.90;;;;;;5117650;28;20051;-75
2021/08/24 01:47:12;;;;;;;15.25;7.80;;;11.90;99.90;;;;;;5118561;28;20491;-72
2021/08/24 01:49:44;;;;;;;19.77;8.57;;;11.80;99.90;;;;;;5116479;28;20047;-72
2021/08/24 01:52:17;;;;;;;17.40;8.50;;;11.80;99.90;;;;;;5118137;28;20101;-73
2021/08/24 01:54:50;;;;;;;13.07;8.20;;;11.80;99.90;;;;;;5118580;28;20051;-73
2021/08/24 01:57:21;;;;;;;14.75;8.32;;;11.80;99.90;;;;;;5118688;28;20095;-73
2021/08/24 01:59:52;;;;;;;11.80;7.45;;;11.90;99.90;;;;;;5117628;28;20076;-73
2021/08/24 02:02:25;;;;;;;14.82;7.55;;;11.80;99.90;;;;;;5117398;28;20044;-73
2021/08/24 02:04:57;;;;;;;15.80;7.85;;;11.90;99.90;;;;;;5117938;28;20605;-73
2021/08/24 02:07:31;;;;;;;14.50;7.35;;;11.90;99.90;;;;;;5117497;28;20104;-72
2021/08/24 02:10:06;;;;;;;13.02;7.78;;;11.90;99.90;;;;;;5117582;28;20112;-72
2021/08/24 02:12:36;;;;;;;14.93;7.57;;;12.00;99.90;;;;;;5117580;28;20087;-72
2021/08/24 02:15:04;;;;;;;13.13;7.72;;;12.00;99.90;;;;;;5117812;28;20543;-72
2021/08/24 02:17:33;;;;;;;14.13;8.05;;;12.00;99.90;;;;;;5117065;28;20096;-73
2021/08/24 02:20:05;;;;;;;12.25;6.70;;;12.10;99.90;;;;;;5117711;28;20105;-72
2021/08/24 02:22:36;;;;;;;14.13;7.72;;;12.10;99.90;;;;;;5118444;28;20051;-72
2021/08/24 02:25:08;;;;;;;13.93;7.55;;;12.10;99.90;;;;;;5117718;28;20055;-73
2021/08/24 02:27:40;;;;;;;13.85;7.07;;;12.10;99.90;;;;;;5116691;28;20062;-72
2021/08/24 02:30:08;;;;;;;13.75;6.47;;;12.20;99.90;;;;;;5117223;28;20048;-73
2021/08/24 02:32:38;;;;;;;13.68;7.10;;;12.10;99.90;;;;;;5117217;28;20039;-73
2021/08/24 02:35:10;;;;;;;13.15;7.28;;;12.20;99.90;;;;;;5117471;28;20101;-73
2021/08/24 02:37:43;;;;;;;12.40;7.63;;;12.10;99.90;;;;;;5115220;28;20051;-73
2021/08/24 02:40:18;;;;;;;15.10;7.68;;;12.20;99.90;;;;;;5115975;28;20492;-73
2021/08/24 02:42:49;;;;;;;12.93;7.38;;;12.20;99.90;;;;;;5116484;28;20075;-72
2021/08/24 02:45:23;;;;;;;15.73;8.55;;;12.30;99.90;;;;;;5116353;28;20084;-72
2021/08/24 02:47:52;;;;;;;14.32;7.38;;;12.30;99.90;;;;;;5114934;28;20051;-72
2021/08/24 02:50:20;;;;;;;12.65;6.80;;;12.30;99.90;;;;;;5115386;28;20047;-72
2021/08/24 02:52:50;;;;;;;11.20;6.13;;;12.30;99.90;;;;;;5115721;28;20093;-73
2021/08/24 02:55:18;;;;;;;13.82;7.00;;;12.30;99.90;;;;;;5114770;28;20055;-73
2021/08/24 02:57:45;;;;;;;12.40;6.20;;;12.30;99.90;;;;;;5114104;28;20047;-72
2021/08/24 03:00:13;;;;;;;10.00;5.40;;;12.30;99.90;;;;;;5115525;28;20116;-73
2021/08/24 03:02:40;;;;;;;14.20;6.85;;;12.40;99.90;;;;;;5115459;28;20446;-71
2021/08/24 03:05:07;;;;;;;11.25;6.00;;;12.40;99.90;;;;;;5114240;28;20524;-72
2021/08/24 03:07:36;;;;;;;15.25;6.78;;;12.40;99.90;;;;;;5113852;28;20048;-72
2021/08/24 03:10:11;;;;;;;12.10;5.85;;;12.30;99.90;;;;;;5114777;28;20052;-73
2021/08/24 03:12:42;;;;;;;13.23;6.25;;;12.50;99.90;;;;;;5114811;28;20458;-73
2021/08/24 03:15:16;;;;;;;8.85;6.03;;;12.50;99.90;;;;;;5114346;28;20503;-73
2021/08/24 03:17:49;;;;;;;11.40;6.03;;;12.40;99.90;;;;;;5113486;28;20052;-73
2021/08/24 03:20:18;;;;;;;11.10;5.25;;;12.40;99.90;;;;;;5113855;28;20055;-73
2021/08/24 03:22:46;;;;;;;9.50;5.40;;;12.40;99.90;;;;;;5113876;28;20056;-76
2021/08/24 03:25:15;;;;;;;11.30;4.90;;;12.40;99.90;;;;;;5113891;28;20051;-72
2021/08/24 03:27:45;;;;;;;11.43;5.80;;;12.40;99.90;;;;;;5112951;28;20100;-72
2021/08/24 03:30:16;;;;;;;8.85;4.90;;;12.40;99.90;;;;;;5113494;28;20048;-76
2021/08/24 03:32:44;;;;;;;14.75;5.65;;;12.40;99.90;;;;;;5113229;28;20304;-72
2021/08/24 03:35:12;;;;;;;11.50;5.80;;;12.40;99.90;;;;;;5113180;28;20113;-72
2021/08/24 03:37:39;;;;;;;10.70;5.65;;;12.50;99.90;;;;;;5112831;28;20384;-73
2021/08/24 03:40:08;;;;;;;9.40;5.15;;;12.50;99.90;;;;;;5113254;28;20496;-73
2021/08/24 03:42:37;;;;;;;12.48;5.57;;;12.40;99.90;;;;;;5113358;28;20125;-73
2021/08/24 03:45:05;;;;;;;12.93;5.47;;;12.50;99.90;;;;;;5113508;28;20047;-71
2021/08/24 03:47:33;;;;;;;13.55;5.10;;;12.50;99.90;;;;;;5112708;28;20047;-72
2021/08/24 03:50:00;;;;;;;10.60;4.78;;;12.50;99.90;;;;;;5112416;28;20572;-72
2021/08/24 03:52:27;;;;;;;13.48;5.00;;;12.60;99.90;;;;;;5113789;28;20048;-73
2021/08/24 03:54:54;;;;;;;12.07;4.90;;;12.60;99.90;;;;;;5113987;28;20109;-73
2021/08/24 03:57:21;;;;;;;13.40;5.47;;;12.60;99.90;;;;;;5113620;28;20101;-76
2021/08/24 03:59:53;;;;;;;13.82;5.30;;;12.60;99.90;;;;;;5113007;28;20112;-73
2021/08/24 04:02:20;;;;;;;11.73;4.68;;;12.50;99.90;;;;;;5113381;28;20449;-73
2021/08/24 04:04:47;;;;;;;10.93;5.05;;;12.60;99.90;;;;;;5113279;28;20048;-73
2021/08/24 04:07:14;;;;;;;11.63;5.15;;;12.60;99.90;;;;;;5113076;28;20568;-72
2021/08/24 04:09:41;;;;;;;11.18;4.97;;;12.60;99.90;;;;;;5112189;28;20100;-73
2021/08/24 04:12:09;;;;;;;12.48;5.63;;;12.60;99.90;;;;;;5112696;28;20754;-71
2021/08/24 04:14:36;;;;;;;10.75;4.43;;;12.70;99.90;;;;;;5112359;28;20083;-72
2021/08/24 04:17:05;;;;;;;12.00;4.72;;;12.70;99.90;;;;;;5112287;28;20048;-72
2021/08/24 04:19:32;;;;;;;7.88;4.07;;;12.80;99.90;;;;;;5112499;28;20052;-72
2021/08/24 04:21:59;;;;;;;9.13;3.65;;;12.80;99.90;;;;;;5113566;28;20435;-73
2021/08/24 04:24:26;;;;;;;10.38;3.80;;;12.90;99.90;;;;;;5113520;28;20476;-71
2021/08/24 04:26:53;;;;;;;10.90;3.88;;;12.80;99.90;;;;;;5113504;28;20051;-72
2021/08/24 04:29:21;;;;;;;9.25;3.72;;;12.80;99.90;;;;;;5112359;28;20043;-72
2021/08/24 04:31:48;;;;;;;11.32;3.78;;;12.70;99.90;;;;;;5112704;28;20416;-72
2021/08/24 04:34:17;;;;;;;9.90;4.45;;;12.80;99.90;;;;;;5113183;28;20392;-72
2021/08/24 04:36:44;;;;;;;10.02;4.00;;;12.80;99.90;;;;;;5113358;28;20047;-73
2021/08/24 04:39:11;;;;;;;9.20;3.67;;;12.80;99.90;;;;;;5112970;28;20631;-72
2021/08/24 04:41:38;;;;;;;7.53;3.60;;;12.80;99.90;;;;;;5114130;28;20055;-72
2021/08/24 04:44:05;;;;;;;8.65;4.03;;;13.00;99.90;;;;;;5115174;28;20208;-73
2021/08/24 04:46:32;;;;;;;9.05;4.57;;;12.90;99.90;;;;;;5114830;28;20052;-73
2021/08/24 04:48:59;;;;;;;7.80;3.90;;;13.00;99.90;;;;;;5113403;28;20101;-75
2021/08/24 04:51:27;;;;;;;9.63;3.35;;;13.00;99.90;;;;;;5114310;28;20047;-71
2021/08/24 04:53:54;;;;;;;7.55;3.20;;;13.00;99.90;;;;;;5115065;28;20574;-73
2021/08/24 04:56:22;;;;;;;7.22;3.63;;;13.10;99.90;;;;;;5113742;28;20054;-73
2021/08/24 04:58:49;;;;;;;7.13;3.42;;;13.10;99.90;;;;;;5112865;28;20058;-73
2021/08/24 05:01:15;;;;;;;9.98;3.53;;;13.10;99.90;;;;;;5116473;28;20116;-72
2021/08/24 05:03:42;;;;;;;9.52;3.53;;;13.20;99.90;;;;;;5118050;28;20078;-72
2021/08/24 05:06:09;;;;;;;7.30;3.10;;;13.20;99.90;;;;;;5117468;28;20044;-73
2021/08/24 05:08:38;;;;;;;6.53;3.38;;;13.10;99.90;;;;;;5116170;28;20048;-72
2021/08/24 05:11:05;;;;;;;9.60;3.35;;;13.20;99.90;;;;;;5116722;28;20063;-72
2021/08/24 05:13:32;;;;;;;6.70;3.35;;;13.20;99.90;;;;;;5116862;28;20051;-72
2021/08/24 05:15:59;;;;;;;7.68;3.38;;;13.20;99.90;;;;;;5116416;28;20051;-72
2021/08/24 05:18:26;;;;;;;7.35;3.60;;;13.20;99.90;;;;;;5115493;28;20556;-72
2021/08/24 05:21:02;;;;;;;6.95;3.38;;;13.20;99.90;;;;;;5115983;28;20566;-73
2021/08/24 05:23:29;;;;;;;7.25;3.13;;;13.10;99.90;;;;;;5116125;28;20112;-73
2021/08/24 05:25:57;;;;;;;8.02;4.07;;;13.20;99.90;;;;;;5116707;28;20059;-72
2021/08/24 05:28:24;;;;;;;8.38;3.10;;;13.20;99.90;;;;;;5115758;28;20073;-72
2021/08/24 05:30:51;;;;;;;7.50;3.13;;;13.20;99.90;;;;;;5115735;28;20096;-72
2021/08/24 05:33:18;;;;;;;6.45;2.80;;;13.20;99.90;;;;;;5116023;28;20092;-72
2021/08/24 05:35:45;;;;;;;7.60;3.35;;;13.30;99.90;;;;;;5115547;28;20043;-72
2021/08/24 05:38:12;;;;;;;7.43;3.28;;;13.30;99.90;;;;;;5114949;28;20055;-71
2021/08/24 05:40:39;;;;;;;5.05;2.83;;;13.30;99.90;;;;;;5115366;28;20047;-72
2021/08/24 05:43:07;;;;;;;6.20;2.90;;;13.40;99.90;;;;;;5115140;28;20487;-72
2021/08/24 05:45:34;;;;;;;7.47;2.67;;;13.40;99.90;;;;;;5115417;28;20055;-71
2021/08/24 05:48:01;;;;;;;6.97;3.08;;;13.50;99.90;;;;;;5114765;28;20048;-72
2021/08/24 05:50:29;;;;;;;8.65;3.58;;;13.60;99.90;;;;;;5115204;28;20051;-73
2021/08/24 05:52:55;;;;;;;6.82;2.92;;;13.70;99.90;;;;;;5114903;28;20529;-70
2021/08/24 05:55:22;;;;;;;14.27;3.60;;;13.80;99.90;;;;;;5115002;28;20047;-71
2021/08/24 05:57:51;;;;;;;9.70;3.00;;;13.90;99.90;;;;;;5114740;28;20047;-71
2021/08/24 06:00:22;;;;;;;5.68;3.00;;;14.00;99.90;;;;;;5114825;28;20075;-71
2021/08/24 06:02:49;;;;;;;9.82;2.55;;;14.10;99.90;;;;;;5115238;28;20491;-72
2021/08/24 06:05:16;;;;;;;8.48;3.58;;;14.20;99.90;;;;;;5115003;28;20048;-71
2021/08/24 06:07:43;;;;;;;7.63;2.55;;;14.30;99.90;;;;;;5113773;28;20077;-72
2021/08/24 06:10:10;;;;;;;6.28;2.83;;;14.40;99.90;;;;;;5115071;28;20077;-72
2021/08/24 06:12:37;;;;;;;8.68;2.75;;;14.40;99.90;;;;;;5113778;28;20047;-72
2021/08/24 06:15:05;;;;;;;10.80;2.88;;;14.50;99.90;;;;;;5114754;28;20453;-72
2021/08/24 06:17:33;;;;;;;8.05;3.17;;;14.60;99.90;;;;;;5114261;28;20055;-72
2021/08/24 06:20:00;;;;;;;5.97;2.53;;;14.60;99.90;;;;;;5115071;28;20052;-73
2021/08/24 06:22:28;;;;;;;5.50;2.67;;;14.70;99.90;;;;;;5114462;28;20058;-72
2021/08/24 06:24:55;;;;;;;5.18;2.50;;;14.60;99.90;;;;;;5114882;28;20507;-71
2021/08/24 06:27:22;;;;;;;6.68;3.13;;;14.60;99.90;;;;;;5115051;28;20048;-72
2021/08/24 06:29:48;;;;;;;7.30;3.42;;;14.70;99.90;;;;;;5113602;28;20059;-72
2021/08/24 06:32:27;;;;;;;8.07;3.15;;;14.80;99.90;;;;;;5114133;28;20055;-72
2021/08/24 06:34:55;;;;;;;9.82;3.03;;;14.90;99.90;;;;;;5114353;28;20051;-72
2021/08/24 06:37:22;;;;;;;8.60;2.83;;;15.00;99.90;;;;;;5113890;28;20109;-71
2021/08/24 06:39:49;;;;;;;6.93;2.83;;;15.20;99.90;;;;;;5113464;28;20043;-72
2021/08/24 06:42:16;;;;;;;8.80;3.45;;;15.30;99.90;;;;;;5113460;28;20108;-71
2021/08/24 06:44:44;;;;;;;10.43;3.85;;;15.30;99.90;;;;;;5113424;28;20097;-72
2021/08/24 06:47:11;;;;;;;9.63;3.72;;;15.40;99.90;;;;;;5112934;28;20069;-71
2021/08/24 06:49:38;;;;;;;7.05;3.90;;;15.40;99.90;;;;;;5113523;28;20059;-71
2021/08/24 06:52:07;;;;;;;7.70;3.70;;;15.50;99.90;;;;;;5113456;28;20051;-71
2021/08/24 06:54:34;;;;;;;9.10;3.92;;;15.50;99.90;;;;;;5113385;28;20043;-72
2021/08/24 06:57:04;;;;;;;8.48;3.80;;;15.60;99.90;;;;;;5113081;28;20048;-71
2021/08/24 06:59:31;;;;;;;6.93;3.67;;;15.80;99.90;;;;;;5112869;28;20058;-71
2021/08/24 07:01:58;;;;;;;10.10;3.80;;;15.90;99.90;;;;;;5113251;28;20047;-72
2021/08/24 07:04:24;;;;;;;9.95;3.75;;;16.00;99.90;;;;;;5112830;28;20047;-71
2021/08/24 07:06:51;;;;;;;8.15;3.15;;;16.20;99.90;;;;;;5112318;28;20080;-71
2021/08/24 07:09:20;;;;;;;6.90;3.53;;;16.20;99.90;;;;;;5112570;28;20123;-71
2021/08/24 07:11:47;;;;;;;7.40;4.53;;;16.20;99.90;;;;;;5111746;28;20055;-71
2021/08/24 07:14:14;;;;;;;8.63;3.63;;;16.20;99.90;;;;;;5111202;28;20557;-71
2021/08/24 07:16:43;;;;;;;8.35;3.65;;;16.30;99.90;;;;;;5111809;28;20436;-71
2021/08/24 07:19:11;;;;;;;9.00;4.10;;;16.30;99.90;;;;;;5111656;28;20122;-71
2021/08/24 07:21:38;;;;;;;10.70;4.32;;;16.50;99.90;;;;;;5111884;28;20434;-71
2021/08/24 07:24:05;;;;;;;7.57;3.90;;;16.50;99.90;;;;;;5111567;28;20048;-72
2021/08/24 07:26:34;;;;;;;10.88;3.53;;;16.60;99.90;;;;;;5111377;28;20465;-71
2021/08/24 07:29:01;;;;;;;8.68;4.25;;;16.60;99.90;;;;;;5110977;28;20063;-72
2021/08/24 07:31:28;;;;;;;8.60;4.18;;;16.70;99.90;;;;;;5111809;28;20052;-71
2021/08/24 07:33:56;;;;;;;9.20;4.05;;;16.70;99.90;;;;;;5111347;28;20503;-71
2021/08/24 07:36:23;;;;;;;8.85;4.50;;;16.70;99.90;;;;;;5111259;28;20509;-72
2021/08/24 07:38:50;;;;;;;9.63;4.88;;;16.70;99.90;;;;;;5110304;28;20116;-73
2021/08/24 07:41:17;;;;;;;14.65;4.45;;;16.70;99.90;;;;;;5111842;28;20073;-72
2021/08/24 07:43:46;;;;;;;10.10;4.10;;;16.60;99.90;;;;;;5111359;28;20089;-71
2021/08/24 07:46:13;;;;;;;8.70;4.28;;;16.80;99.90;;;;;;5111432;28;20048;-72
2021/08/24 07:48:40;;;;;;;9.80;4.53;;;16.80;99.90;;;;;;5110618;28;20043;-71
2021/08/24 07:51:07;;;;;;;13.50;4.35;;;16.80;99.90;;;;;;5111425;28;20051;-71
2021/08/24 07:53:34;;;;;;;8.63;4.30;;;16.90;99.90;;;;;;5110982;28;20116;-71
2021/08/24 07:56:02;;;;;;;13.55;4.40;;;16.90;99.90;;;;;;5110753;28;20101;-71
2021/08/24 07:58:29;;;;;;;9.40;4.55;;;16.70;99.90;;;;;;5110250;28;20051;-71
2021/08/24 08:00:57;;;;;;;8.27;4.32;;;16.80;99.90;;;;;;5110882;28;20047;-70
2021/08/24 08:03:24;;;;;;;11.30;4.75;;;17.00;99.90;;;;;;5110885;28;20495;-71
2021/08/24 08:05:51;;;;;;;13.98;5.10;;;17.10;99.90;;;;;;5110539;28;20047;-73
2021/08/24 08:08:18;;;;;;;11.30;4.28;;;17.10;99.90;;;;;;5110593;28;20047;-72
2021/08/24 08:10:45;;;;;;;12.48;5.05;;;17.30;99.90;;;;;;5110386;28;20097;-72
2021/08/24 08:13:12;;;;;;;11.82;4.65;;;17.40;99.90;;;;;;5110291;28;20407;-72
2021/08/24 08:15:39;;;;;;;13.82;5.18;;;17.60;99.90;;;;;;5110629;28;20051;-72
2021/08/24 08:18:09;;;;;;;15.57;5.28;;;17.80;99.90;;;;;;5109934;28;20047;-72
2021/08/24 08:20:38;;;;;;;10.65;4.60;;;18.10;99.90;;;;;;5109821;28;20052;-72
2021/08/24 08:23:07;;;;;;;8.50;4.90;;;18.50;99.90;;;;;;5109632;28;20077;-72
2021/08/24 08:25:35;;;;;;;16.13;5.43;;;18.70;99.90;;;;;;5109685;28;20052;-71
2021/08/24 08:28:02;;;;;;;10.27;4.78;;;18.90;99.90;;;;;;5109059;28;20048;-70
2021/08/24 08:30:30;;;;;;;15.38;5.60;;;19.30;99.90;;;;;;5109559;28;20094;-70
2021/08/24 08:32:59;;;;;;;9.80;4.60;;;19.30;99.90;;;;;;5109186;28;20048;-70
2021/08/24 08:35:28;;;;;;;10.80;4.18;;;19.60;99.90;;;;;;5110702;28;20142;-70
2021/08/24 08:37:55;;;;;;;9.30;5.38;;;20.20;99.90;;;;;;5113515;28;20052;-70
2021/08/24 08:40:28;;;;;;;8.95;5.50;;;20.70;99.90;;;;;;5113591;28;20097;-69
2021/08/24 08:43:03;;;;;;;9.60;5.40;;;21.50;99.90;;;;;;5113678;28;20101;-70
2021/08/24 08:45:40;;;;;;;11.00;4.78;;;21.70;99.90;;;;;;5113233;28;20048;-70
2021/08/24 08:48:22;;;;;;;;;;;22.60;99.90;;;;;;5113474;28;20148;-70
2021/08/24 08:50:54;;;;;;;10.15;5.45;;;22.40;99.90;;;;;;5113661;28;19963;-70
2021/08/24 08:53:41;;;;;;;10.68;5.45;;;22.60;99.90;;;;;;5113272;28;20097;-70
2021/08/24 08:56:14;;;;;;;20.40;5.63;;;23.30;99.90;;;;;;5113312;28;20062;-70
2021/08/24 08:58:49;;;;;;;10.80;5.00;;;23.90;99.90;;;;;;5112872;28;20044;-70
2021/08/24 09:01:22;;;;;;;8.70;5.10;;;24.60;99.90;;;;;;5113375;28;20047;-70
2021/08/24 09:03:54;;;;;;;13.70;4.80;;;25.60;99.90;;;;;;5113285;28;20446;-70
2021/08/24 09:06:26;;;;;;;10.13;5.43;;;26.30;99.90;;;;;;5113216;28;20051;-70
2021/08/24 09:08:54;;;;;;;8.85;5.50;;;27.00;99.90;;;;;;5112485;28;20492;-70
2021/08/24 09:11:28;;;;;;;7.93;4.45;;;27.40;99.90;;;;;;5113059;28;20091;-70
2021/08/24 09:14:00;;;;;;;8.05;5.20;;;27.80;99.90;;;;;;5113196;28;20043;-70
2021/08/24 09:16:31;;;;;;;9.05;4.82;;;28.10;99.90;;;;;;5112579;28;20083;-70
2021/08/24 09:19:00;;;;;;;9.40;4.72;;;28.20;99.90;;;;;;5112529;28;20047;-70
2021/08/24 09:21:33;;;;;;;7.82;5.07;;;28.70;99.90;;;;;;5112781;28;20171;-70
2021/08/24 09:24:07;;;;;;;8.82;5.00;;;28.90;99.90;;;;;;5112572;28;20459;-70
2021/08/24 09:26:49;;;;;;;8.00;4.82;;;29.10;99.90;;;;;;5112724;28;20070;-70
2021/08/24 09:29:19;;;;;;;15.32;5.18;;;28.60;99.90;;;;;;5112143;28;20082;-70
2021/08/24 09:31:46;;;;;;;7.20;4.90;;;27.80;99.90;;;;;;5112760;28;20092;-70
2021/08/24 09:34:17;;;;;;;10.10;5.25;;;27.70;99.90;;;;;;5112676;28;20043;-70
2021/08/24 09:36:45;;;;;;;12.23;5.28;;;26.80;99.90;;;;;;5112638;28;20047;-70
2021/08/24 09:39:12;;;;;;;8.35;4.50;;;26.70;99.90;;;;;;5112183;28;20043;-70
2021/08/24 09:41:43;;;;;;;8.63;4.55;;;26.80;99.90;;;;;;5112489;28;20101;-70
2021/08/24 09:44:28;;;;;;;10.75;5.00;;;26.30;99.90;;;;;;5112802;28;20056;-70
2021/08/24 09:47:04;;;;;;;11.13;4.40;;;25.90;99.90;;;;;;5111964;28;20047;-70
2021/08/24 09:49:38;;;;;;;9.18;5.15;;;26.30;99.90;;;;;;5111822;28;20112;-69
2021/08/24 09:52:10;;;;;;;7.47;5.13;;;26.60;99.90;;;;;;5112091;28;20171;-69
2021/08/24 09:54:41;;;;;;;7.78;5.05;;;26.80;99.90;;;;;;5112473;28;20048;-69
2021/08/24 09:57:18;;;;;;;8.60;5.32;;;27.10;99.90;;;;;;5112128;28;20051;-69
2021/08/24 09:59:48;;;;;;;7.60;5.03;;;27.70;99.90;;;;;;5111787;28;20047;-69
2021/08/24 10:02:38;;;;;;;11.00;4.90;;;28.20;99.90;;;;;;5112019;28;20048;-69
2021/08/24 10:05:08;;;;;;;6.88;4.68;;;28.50;99.90;;;;;;5112308;28;20495;-70
2021/08/24 10:07:40;;;;;;;9.60;4.93;;;29.20;99.90;;;;;;5111825;28;20130;-70
2021/08/24 10:10:10;;;;;;;8.77;5.70;;;29.30;99.90;;;;;;5112187;28;20055;-70
2021/08/24 10:12:38;;;;;;;13.25;6.35;;;29.00;99.90;;;;;;5112331;28;20089;-70
2021/08/24 10:15:30;;;;;;;8.63;5.63;;;28.40;99.90;;;;;;5111715;28;20793;-70
2021/08/24 10:18:01;;;;;;;6.90;4.63;;;28.80;99.90;;;;;;5111240;28;20048;-70
2021/08/24 10:20:32;;;;;;;9.27;5.35;;;28.80;99.90;;;;;;5111671;28;20526;-70
2021/08/24 10:23:04;;;;;;;10.20;6.20;;;29.00;99.90;;;;;;5112021;28;20063;-71
2021/08/24 10:25:36;;;;;;;8.48;5.28;;;29.20;99.90;;;;;;5111553;28;20556;-71
2021/08/24 10:28:07;;;;;;;8.45;5.55;;;28.70;99.90;;;;;;5111022;28;20044;-70
2021/08/24 10:30:43;;;;;;;8.25;5.70;;;28.10;99.90;;;;;;5111746;28;20079;-71
2021/08/24 10:33:31;;;;;;;11.65;6.20;;;27.20;99.90;;;;;;5111506;28;20093;-71
2021/08/24 10:36:07;;;;;;;10.07;5.55;;;26.50;99.90;;;;;;5111547;28;20047;-71
2021/08/24 10:38:43;;;;;;;8.82;5.60;;;26.40;99.90;;;;;;5110611;28;20047;-71
2021/08/24 10:41:37;;;;;;;8.85;5.30;;;26.00;99.90;;;;;;5111547;28;20052;-70
2021/08/24 10:44:14;;;;;;;9.30;6.13;;;26.10;99.90;;;;;;5110950;28;20083;-71
2021/08/24 10:47:02;;;;;;;12.15;5.55;;;27.40;99.90;;;;;;5111345;28;20371;-69
2021/08/24 10:49:30;;;;;;;8.75;5.55;;;28.10;99.90;;;;;;5110469;28;20047;-70
2021/08/24 10:52:05;;;;;;;9.93;5.90;;;28.10;99.90;;;;;;5110857;28;20100;-70
2021/08/24 10:54:55;;;;;;;10.55;5.70;;;28.40;99.90;;;;;;5110930;28;20496;-69
2021/08/24 10:57:33;;;;;;;9.98;6.47;;;27.90;99.90;;;;;;5111038;28;20097;-70
2021/08/24 11:00:11;;;;;;;10.40;5.43;;;27.80;99.90;;;;;;5110388;28;20441;-69
2021/08/24 11:02:53;;;;;;;9.20;5.75;;;27.80;99.90;;;;;;5110797;28;20083;-70
2021/08/24 11:05:44;;;;;;;9.77;6.20;;;27.10;99.90;;;;;;5110773;28;20109;-70
2021/08/24 11:08:25;;;;;;;9.77;5.78;;;26.40;99.90;;;;;;5110289;28;20043;-70
2021/08/24 11:11:01;;;;;;;11.02;6.10;;;26.00;99.90;;;;;;5110872;28;20097;-70
2021/08/24 11:13:38;;;;;;;11.82;6.28;;;25.60;99.90;;;;;;5110554;28;20059;-70
2021/08/24 11:16:20;;;;;;;10.80;5.63;;;25.50;99.90;;;;;;5110608;28;20533;-70
2021/08/24 11:18:51;;;;;;;9.63;5.55;;;25.40;99.90;;;;;;5110263;28;20090;-70
2021/08/24 11:21:27;;;;;;;12.90;6.90;;;24.80;99.90;;;;;;5110531;28;20440;-70
2021/08/24 11:24:03;;;;;;;;;;;24.50;99.90;;;;;;5111075;28;20505;-70
2021/08/24 11:26:36;;;;;;;10.32;5.60;;;23.90;99.90;;;;;;5110432;28;19983;-70
2021/08/24 11:29:19;;;;;;;10.35;6.72;;;23.60;99.90;;;;;;5110087;28;20083;-70
2021/08/24 11:31:51;;;;;;;11.45;6.07;;;23.60;99.90;;;;;;5111051;28;20319;-71
2021/08/24 11:34:23;;;;;;;12.18;6.28;;;23.10;99.90;;;;;;5110700;28;20636;-71
2021/08/24 11:36:56;;;;;;;10.02;6.57;;;22.70;99.90;;;;;;5110379;28;20047;-71
2021/08/24 11:39:35;;;;;;;9.73;5.97;;;22.70;99.90;;;;;;5109933;28;20055;-71
2021/08/24 11:42:06;;;;;;;12.55;6.53;;;22.60;99.90;;;;;;5110182;28;20083;-71
2021/08/24 11:44:38;;;;;;;11.48;6.05;;;22.60;99.90;;;;;;5110068;28;20044;-71
2021/08/24 11:47:10;;;;;;;12.68;5.72;;;22.70;99.90;;;;;;5110065;28;20105;-71
2021/08/24 11:49:42;;;;;;;11.25;5.78;;;22.80;99.90;;;;;;5109585;28;20050;-71
2021/08/24 11:52:15;;;;;;;10.07;6.47;;;23.10;99.90;;;;;;5110208;28;20075;-71
2021/08/24 11:54:51;;;;;;;10.48;6.15;;;23.40;99.90;;;;;;5109879;28;20047;-71
2021/08/24 11:57:30;;;;;;;10.27;5.72;;;23.90;99.90;;;;;;5109956;28;20092;-71
2021/08/24 11:59:57;;;;;;;9.95;6.15;;;24.00;99.90;;;;;;5109612;28;20051;-71
2021/08/24 12:02:28;;;;;;;13.45;6.32;;;23.90;99.90;;;;;;5110092;28;20056;-71
2021/08/24 12:04:56;;;;;;;11.50;6.75;;;23.80;99.90;;;;;;5109659;28;20075;-70
2021/08/24 12:07:33;;;;;;;10.57;6.50;;;23.60;99.90;;;;;;5109327;28;20557;-70
2021/08/24 12:10:01;;;;;;;9.63;6.43;;;23.50;99.90;;;;;;5109153;28;20051;-70
2021/08/24 12:12:47;;;;;;;14.20;6.28;;;23.20;99.90;;;;;;5109688;28;20051;-70
2021/08/24 12:15:29;;;;;;;11.60;5.82;;;23.10;99.90;;;;;;5109887;28;20043;-70
2021/08/24 12:18:03;;;;;;;10.63;6.45;;;22.70;99.90;;;;;;5108902;28;20055;-70
2021/08/24 12:20:34;;;;;;;10.48;5.97;;;22.40;99.90;;;;;;5109485;28;20051;-70
2021/08/24 12:23:04;;;;;;;12.50;6.50;;;22.30;99.90;;;;;;5109545;28;20087;-70
2021/08/24 12:25:35;;;;;;;9.95;6.25;;;22.10;99.90;;;;;;5109698;28;20091;-70
2021/08/24 12:28:29;;;;;;;10.60;6.45;;;22.10;99.90;;;;;;5108853;28;20107;-70
2021/08/24 12:31:25;;;;;;;16.40;6.50;;;21.90;99.90;;;;;;5109627;28;20112;-70
2021/08/24 12:33:52;;;;;;;14.00;6.93;;;22.00;99.90;;;;;;5079538;28;20101;-70
2021/08/24 12:36:54;;;;;;;12.27;6.78;;;22.00;99.90;;;;;;5109368;28;20077;-70
2021/08/24 12:39:40;;;;;;;11.85;7.30;;;22.10;99.90;;;;;;5109113;28;20056;-70
2021/08/24 12:42:25;;;;;;;16.02;7.45;;;22.00;99.90;;;;;;5109522;28;20052;-70
2021/08/24 12:45:30;;;;;;;12.98;7.85;;;21.90;99.90;;;;;;5109244;28;20048;-70
2021/08/24 12:48:16;;;;;;;20.25;7.22;;;22.00;99.90;;;;;;5108776;28;20104;-70
2021/08/24 12:50:51;;;;;;;12.32;6.95;;;22.00;99.90;;;;;;5109352;28;20101;-70
2021/08/24 12:53:39;;;;;;;13.48;7.32;;;22.00;99.90;;;;;;5108927;28;20101;-70
2021/08/24 12:56:07;;;;;;;19.55;8.63;;;21.80;99.90;;;;;;5109396;28;20087;-70
2021/08/24 12:58:46;;;;;;;15.35;7.47;;;21.80;99.90;;;;;;5108840;28;20437;-70
2021/08/24 13:01:17;;;;;;;12.45;7.00;;;21.80;99.90;;;;;;5109187;28;20048;-70